sensor_id;sensor_type;location;lat;lon;timestamp;pressure;altitude;pressure_sealevel;temperature;humidity
54308;BME280;40208;39.778;2.710;2023-02-08T00:02:36;102150.03;;;10.74;100.00
54308;BME280;40208;39.778;2.710;2023-02-08T00:05:21;102141.94;;;10.78;100.00
54308;BME280;40208;39.778;2.710;2023-02-08T00:08:06;102128.47;;;10.86;100.00
54308;BME280;40208;39.778;2.710;2023-02-08T00:10:50;102135.53;;;10.87;100.00
54308;BME280;40208;39.778;2.710;2023-02-08T00:13:35;102131.88;;;10.91;100.00
54308;BME280;40208;39.778;2.710;2023-02-08T00:16:20;102135.97;;;11.06;100.00
54308;BME280;40208;39.778;2.710;2023-02-08T00:19:04;102111.13;;;11.07;100.00
54308;BME280;40208;39.778;2.710;2023-02-08T00:21:49;102144.59;;;11.14;100.00
54308;BME280;40208;39.778;2.710;2023-02-08T00:24:34;102097.63;;;11.15;100.00
54308;BME280;40208;39.778;2.710;2023-02-08T00:27:18;102082.53;;;11.17;100.00
54308;BME280;40208;39.778;2.710;2023-02-08T00:30:03;102092.19;;;11.19;100.00
54308;BME280;40208;39.778;2.710;2023-02-08T00:32:48;102080.69;;;11.19;100.00
54308;BME280;40208;39.778;2.710;2023-02-08T00:35:32;102078.00;;;11.20;100.00
54308;BME280;40208;39.778;2.710;2023-02-08T00:38:17;102085.09;;;11.20;100.00
54308;BME280;40208;39.778;2.710;2023-02-08T00:41:01;102089.63;;;11.16;100.00
54308;BME280;40208;39.778;2.710;2023-02-08T00:43:46;102103.97;;;11.11;100.00
54308;BME280;40208;39.778;2.710;2023-02-08T00:46:30;102106.56;;;11.12;100.00
54308;BME280;40208;39.778;2.710;2023-02-08T00:49:15;102118.22;;;11.07;100.00
54308;BME280;40208;39.778;2.710;2023-02-08T00:51:59;102123.78;;;10.96;100.00
54308;BME280;40208;39.778;2.710;2023-02-08T00:54:44;102122.91;;;10.97;100.00
54308;BME280;40208;39.778;2.710;2023-02-08T00:57:33;102103.50;;;10.93;100.00
54308;BME280;40208;39.778;2.710;2023-02-08T01:00:17;102115.81;;;10.97;100.00
54308;BME280;40208;39.778;2.710;2023-02-08T01:03:02;102119.38;;;10.96;100.00
54308;BME280;40208;39.778;2.710;2023-02-08T01:05:46;102142.22;;;11.03;100.00
54308;BME280;40208;39.778;2.710;2023-02-08T01:08:31;102126.19;;;11.07;100.00
54308;BME280;40208;39.778;2.710;2023-02-08T01:11:17;102107.84;;;10.97;100.00
54308;BME280;40208;39.778;2.710;2023-02-08T01:14:05;102126.56;;;10.91;100.00
54308;BME280;40208;39.778;2.710;2023-02-08T01:16:49;102115.06;;;10.91;100.00
54308;BME280;40208;39.778;2.710;2023-02-08T01:19:34;102129.31;;;10.88;100.00
54308;BME280;40208;39.778;2.710;2023-02-08T01:22:18;102133.72;;;10.89;100.00
54308;BME280;40208;39.778;2.710;2023-02-08T01:25:03;102129.41;;;10.83;100.00
54308;BME280;40208;39.778;2.710;2023-02-08T01:27:47;102116.38;;;10.74;100.00
54308;BME280;40208;39.778;2.710;2023-02-08T01:30:32;102143.09;;;10.67;100.00
54308;BME280;40208;39.778;2.710;2023-02-08T01:33:16;102128.69;;;10.77;100.00
54308;BME280;40208;39.778;2.710;2023-02-08T01:36:01;102130.28;;;10.84;100.00
54308;BME280;40208;39.778;2.710;2023-02-08T01:38:45;102113.69;;;10.76;100.00
54308;BME280;40208;39.778;2.710;2023-02-08T01:41:32;102133.34;;;10.67;100.00
54308;BME280;40208;39.778;2.710;2023-02-08T01:47:01;102134.38;;;10.61;100.00
54308;BME280;40208;39.778;2.710;2023-02-08T01:49:46;102134.47;;;10.58;100.00
54308;BME280;40208;39.778;2.710;2023-02-08T01:52:31;102139.72;;;10.60;100.00
54308;BME280;40208;39.778;2.710;2023-02-08T01:55:21;102133.22;;;10.73;100.00
54308;BME280;40208;39.778;2.710;2023-02-08T01:58:07;102126.94;;;10.77;100.00
54308;BME280;40208;39.778;2.710;2023-02-08T02:00:53;102118.91;;;10.79;100.00
54308;BME280;40208;39.778;2.710;2023-02-08T02:03:38;102125.16;;;10.78;100.00
54308;BME280;40208;39.778;2.710;2023-02-08T02:06:23;102122.63;;;10.72;100.00
54308;BME280;40208;39.778;2.710;2023-02-08T02:12:19;102146.72;;;11.00;100.00
54308;BME280;40208;39.778;2.710;2023-02-08T02:15:04;102108.78;;;10.95;100.00
54308;BME280;40208;39.778;2.710;2023-02-08T02:17:49;102135.22;;;10.99;100.00
54308;BME280;40208;39.778;2.710;2023-02-08T02:29:16;102119.91;;;10.75;100.00
54308;BME280;40208;39.778;2.710;2023-02-08T02:32:32;102128.66;;;10.78;100.00
54308;BME280;40208;39.778;2.710;2023-02-08T02:35:35;102108.09;;;10.87;100.00
54308;BME280;40208;39.778;2.710;2023-02-08T02:43:58;102083.44;;;10.81;100.00
54308;BME280;40208;39.778;2.710;2023-02-08T02:46:45;102109.81;;;10.89;100.00
54308;BME280;40208;39.778;2.710;2023-02-08T02:49:38;102103.06;;;10.76;100.00
54308;BME280;40208;39.778;2.710;2023-02-08T02:52:45;102109.25;;;10.76;100.00
54308;BME280;40208;39.778;2.710;2023-02-08T02:55:32;102103.25;;;10.68;100.00
54308;BME280;40208;39.778;2.710;2023-02-08T02:58:18;102128.22;;;10.59;100.00
54308;BME280;40208;39.778;2.710;2023-02-08T03:01:05;102122.16;;;10.54;100.00
54308;BME280;40208;39.778;2.710;2023-02-08T03:03:49;102120.59;;;10.46;100.00
54308;BME280;40208;39.778;2.710;2023-02-08T03:12:33;102104.66;;;10.46;100.00
54308;BME280;40208;39.778;2.710;2023-02-08T03:15:29;102101.22;;;10.42;100.00
54308;BME280;40208;39.778;2.710;2023-02-08T03:27:12;102120.97;;;10.29;100.00
54308;BME280;40208;39.778;2.710;2023-02-08T03:33:02;102132.97;;;10.47;100.00
54308;BME280;40208;39.778;2.710;2023-02-08T03:35:52;102108.34;;;10.40;100.00
54308;BME280;40208;39.778;2.710;2023-02-08T03:38:40;102125.91;;;10.46;100.00
54308;BME280;40208;39.778;2.710;2023-02-08T03:41:31;102133.13;;;10.39;100.00
54308;BME280;40208;39.778;2.710;2023-02-08T03:44:17;102145.63;;;10.34;100.00
54308;BME280;40208;39.778;2.710;2023-02-08T03:47:06;102136.00;;;10.30;100.00
54308;BME280;40208;39.778;2.710;2023-02-08T03:49:54;102136.88;;;10.27;100.00
54308;BME280;40208;39.778;2.710;2023-02-08T03:52:40;102136.06;;;10.25;100.00
54308;BME280;40208;39.778;2.710;2023-02-08T03:55:29;102136.28;;;10.16;100.00
54308;BME280;40208;39.778;2.710;2023-02-08T03:58:17;102138.94;;;10.16;100.00
54308;BME280;40208;39.778;2.710;2023-02-08T04:01:07;102131.50;;;10.32;100.00
54308;BME280;40208;39.778;2.710;2023-02-08T04:03:53;102144.84;;;10.29;100.00
54308;BME280;40208;39.778;2.710;2023-02-08T04:06:38;102142.09;;;10.35;100.00
54308;BME280;40208;39.778;2.710;2023-02-08T04:09:23;102150.97;;;10.32;100.00
54308;BME280;40208;39.778;2.710;2023-02-08T04:12:07;102146.25;;;10.47;100.00
54308;BME280;40208;39.778;2.710;2023-02-08T04:14:52;102133.06;;;10.42;100.00
54308;BME280;40208;39.778;2.710;2023-02-08T04:17:36;102165.75;;;10.44;100.00
54308;BME280;40208;39.778;2.710;2023-02-08T04:20:21;102140.75;;;10.54;100.00
54308;BME280;40208;39.778;2.710;2023-02-08T04:23:06;102133.63;;;10.56;100.00
54308;BME280;40208;39.778;2.710;2023-02-08T04:25:50;102151.50;;;10.48;100.00
54308;BME280;40208;39.778;2.710;2023-02-08T04:28:34;102137.22;;;10.54;100.00
54308;BME280;40208;39.778;2.710;2023-02-08T04:31:19;102118.59;;;10.55;100.00
54308;BME280;40208;39.778;2.710;2023-02-08T04:34:04;102134.34;;;10.63;100.00
54308;BME280;40208;39.778;2.710;2023-02-08T04:36:48;102123.91;;;10.55;100.00
54308;BME280;40208;39.778;2.710;2023-02-08T04:39:32;102133.81;;;10.49;100.00
54308;BME280;40208;39.778;2.710;2023-02-08T04:42:17;102130.25;;;10.48;100.00
54308;BME280;40208;39.778;2.710;2023-02-08T04:45:01;102127.81;;;10.39;100.00
54308;BME280;40208;39.778;2.710;2023-02-08T04:47:46;102119.94;;;10.36;100.00
54308;BME280;40208;39.778;2.710;2023-02-08T04:50:30;102135.53;;;10.51;100.00
54308;BME280;40208;39.778;2.710;2023-02-08T04:53:15;102125.94;;;10.44;100.00
54308;BME280;40208;39.778;2.710;2023-02-08T04:55:59;102111.88;;;10.39;100.00
54308;BME280;40208;39.778;2.710;2023-02-08T04:58:44;102146.50;;;10.34;100.00
54308;BME280;40208;39.778;2.710;2023-02-08T05:01:28;102133.28;;;10.33;100.00
54308;BME280;40208;39.778;2.710;2023-02-08T05:04:13;102121.84;;;10.29;100.00
54308;BME280;40208;39.778;2.710;2023-02-08T05:06:57;102124.50;;;10.28;100.00
54308;BME280;40208;39.778;2.710;2023-02-08T05:09:42;102121.75;;;10.34;100.00
54308;BME280;40208;39.778;2.710;2023-02-08T05:12:26;102124.47;;;10.31;100.00
54308;BME280;40208;39.778;2.710;2023-02-08T05:15:11;102129.81;;;10.28;100.00
54308;BME280;40208;39.778;2.710;2023-02-08T05:17:55;102149.44;;;10.21;100.00
54308;BME280;40208;39.778;2.710;2023-02-08T05:20:40;102137.06;;;10.19;100.00
54308;BME280;40208;39.778;2.710;2023-02-08T05:23:25;102152.31;;;10.10;100.00
54308;BME280;40208;39.778;2.710;2023-02-08T05:26:10;102148.97;;;10.02;100.00
54308;BME280;40208;39.778;2.710;2023-02-08T05:28:54;102138.38;;;9.98;100.00
54308;BME280;40208;39.778;2.710;2023-02-08T05:31:39;102145.28;;;10.07;100.00
54308;BME280;40208;39.778;2.710;2023-02-08T05:34:23;102147.16;;;10.02;100.00
54308;BME280;40208;39.778;2.710;2023-02-08T05:37:08;102155.25;;;9.96;100.00
54308;BME280;40208;39.778;2.710;2023-02-08T05:39:52;102169.41;;;9.95;100.00
54308;BME280;40208;39.778;2.710;2023-02-08T05:42:37;102166.00;;;9.90;100.00
54308;BME280;40208;39.778;2.710;2023-02-08T05:45:22;102160.78;;;9.84;100.00
54308;BME280;40208;39.778;2.710;2023-02-08T05:48:06;102166.16;;;9.81;100.00
54308;BME280;40208;39.778;2.710;2023-02-08T05:50:50;102174.19;;;9.77;100.00
54308;BME280;40208;39.778;2.710;2023-02-08T05:53:35;102164.47;;;9.76;100.00
54308;BME280;40208;39.778;2.710;2023-02-08T05:56:20;102177.56;;;9.84;100.00
54308;BME280;40208;39.778;2.710;2023-02-08T05:59:05;102140.63;;;9.76;100.00
54308;BME280;40208;39.778;2.710;2023-02-08T06:01:50;102163.59;;;9.76;100.00
54308;BME280;40208;39.778;2.710;2023-02-08T06:04:34;102161.81;;;9.78;100.00
54308;BME280;40208;39.778;2.710;2023-02-08T06:07:19;102173.28;;;9.79;100.00
54308;BME280;40208;39.778;2.710;2023-02-08T06:10:03;102164.38;;;9.81;100.00
54308;BME280;40208;39.778;2.710;2023-02-08T06:12:48;102175.94;;;9.79;100.00
54308;BME280;40208;39.778;2.710;2023-02-08T06:15:32;102163.59;;;9.76;100.00
54308;BME280;40208;39.778;2.710;2023-02-08T06:18:17;102172.50;;;9.73;100.00
54308;BME280;40208;39.778;2.710;2023-02-08T06:21:02;102171.66;;;9.70;100.00
54308;BME280;40208;39.778;2.710;2023-02-08T06:23:48;102178.75;;;9.69;100.00
54308;BME280;40208;39.778;2.710;2023-02-08T06:26:33;102169.09;;;9.65;100.00
54308;BME280;40208;39.778;2.710;2023-02-08T06:29:17;102174.31;;;9.70;100.00
54308;BME280;40208;39.778;2.710;2023-02-08T06:32:02;102181.41;;;9.69;100.00
54308;BME280;40208;39.778;2.710;2023-02-08T06:34:46;102166.41;;;9.68;100.00
54308;BME280;40208;39.778;2.710;2023-02-08T06:37:34;102167.16;;;9.75;100.00
54308;BME280;40208;39.778;2.710;2023-02-08T06:40:18;102180.09;;;9.92;100.00
54308;BME280;40208;39.778;2.710;2023-02-08T06:43:03;102159.84;;;9.88;100.00
54308;BME280;40208;39.778;2.710;2023-02-08T06:45:47;102172.25;;;9.86;100.00
54308;BME280;40208;39.778;2.710;2023-02-08T06:48:32;102160.72;;;9.87;100.00
54308;BME280;40208;39.778;2.710;2023-02-08T06:51:17;102173.97;;;9.87;100.00
54308;BME280;40208;39.778;2.710;2023-02-08T06:54:02;102182.06;;;9.81;100.00
54308;BME280;40208;39.778;2.710;2023-02-08T06:56:46;102167.97;;;9.79;100.00
54308;BME280;40208;39.778;2.710;2023-02-08T06:59:31;102188.25;;;9.80;100.00
54308;BME280;40208;39.778;2.710;2023-02-08T07:02:16;102194.50;;;9.79;100.00
54308;BME280;40208;39.778;2.710;2023-02-08T07:05:01;102195.41;;;9.77;100.00
54308;BME280;40208;39.778;2.710;2023-02-08T07:07:46;102205.09;;;9.77;100.00
54308;BME280;40208;39.778;2.710;2023-02-08T07:10:32;102206.81;;;9.80;100.00
54308;BME280;40208;39.778;2.710;2023-02-08T07:13:16;102193.66;;;9.75;100.00
54308;BME280;40208;39.778;2.710;2023-02-08T07:16:02;102191.94;;;9.72;100.00
54308;BME280;40208;39.778;2.710;2023-02-08T07:18:47;102184.03;;;9.71;100.00
54308;BME280;40208;39.778;2.710;2023-02-08T07:21:32;102191.00;;;9.76;100.00
54308;BME280;40208;39.778;2.710;2023-02-08T07:24:17;102192.78;;;9.74;100.00
54308;BME280;40208;39.778;2.710;2023-02-08T07:27:01;102190.13;;;9.74;100.00
54308;BME280;40208;39.778;2.710;2023-02-08T07:29:46;102207.91;;;9.69;100.00
54308;BME280;40208;39.778;2.710;2023-02-08T07:32:31;102208.84;;;9.68;100.00
54308;BME280;40208;39.778;2.710;2023-02-08T07:35:15;102206.22;;;9.65;100.00
54308;BME280;40208;39.778;2.710;2023-02-08T07:38:00;102204.47;;;9.64;100.00
54308;BME280;40208;39.778;2.710;2023-02-08T07:40:44;102217.72;;;9.64;100.00
54308;BME280;40208;39.778;2.710;2023-02-08T07:43:29;102227.41;;;9.65;100.00
54308;BME280;40208;39.778;2.710;2023-02-08T07:46:15;102217.78;;;9.61;100.00
54308;BME280;40208;39.778;2.710;2023-02-08T07:49:00;102234.59;;;9.60;100.00
54308;BME280;40208;39.778;2.710;2023-02-08T07:51:44;102243.31;;;9.65;100.00
54308;BME280;40208;39.778;2.710;2023-02-08T07:54:28;102242.38;;;9.71;100.00
54308;BME280;40208;39.778;2.710;2023-02-08T07:57:13;102241.44;;;9.73;100.00
54308;BME280;40208;39.778;2.710;2023-02-08T08:00:04;102245.72;;;9.81;100.00
54308;BME280;40208;39.778;2.710;2023-02-08T08:02:49;102239.41;;;9.88;100.00
54308;BME280;40208;39.778;2.710;2023-02-08T08:05:34;102248.22;;;9.88;100.00
54308;BME280;40208;39.778;2.710;2023-02-08T08:08:18;102261.41;;;9.91;100.00
54308;BME280;40208;39.778;2.710;2023-02-08T08:11:03;102258.75;;;9.93;100.00
54308;BME280;40208;39.778;2.710;2023-02-08T08:13:48;102260.53;;;9.92;100.00
54308;BME280;40208;39.778;2.710;2023-02-08T08:16:33;102279.88;;;9.96;100.00
54308;BME280;40208;39.778;2.710;2023-02-08T08:19:18;102290.50;;;9.96;100.00
54308;BME280;40208;39.778;2.710;2023-02-08T08:22:02;102289.63;;;9.97;100.00
54308;BME280;40208;39.778;2.710;2023-02-08T08:24:47;102287.81;;;9.99;100.00
54308;BME280;40208;39.778;2.710;2023-02-08T08:27:32;102289.47;;;10.03;100.00
54308;BME280;40208;39.778;2.710;2023-02-08T08:30:17;102302.66;;;10.08;100.00
54308;BME280;40208;39.778;2.710;2023-02-08T08:33:02;102306.19;;;10.08;100.00
54308;BME280;40208;39.778;2.710;2023-02-08T08:35:47;102289.41;;;10.08;100.00
54308;BME280;40208;39.778;2.710;2023-02-08T08:38:31;102298.22;;;10.08;100.00
54308;BME280;40208;39.778;2.710;2023-02-08T08:41:16;102298.03;;;10.19;100.00
54308;BME280;40208;39.778;2.710;2023-02-08T08:44:01;102295.31;;;10.22;100.00
54308;BME280;40208;39.778;2.710;2023-02-08T08:46:46;102298.84;;;10.23;100.00
54308;BME280;40208;39.778;2.710;2023-02-08T08:49:31;102304.06;;;10.27;100.00
54308;BME280;40208;39.778;2.710;2023-02-08T08:52:17;102291.69;;;10.28;100.00
54308;BME280;40208;39.778;2.710;2023-02-08T08:55:01;102308.50;;;10.30;100.00
54308;BME280;40208;39.778;2.710;2023-02-08T08:57:46;102314.66;;;10.30;100.00
54308;BME280;40208;39.778;2.710;2023-02-08T09:00:31;102296.94;;;10.32;100.00
54308;BME280;40208;39.778;2.710;2023-02-08T09:03:15;102298.59;;;10.38;100.00
54308;BME280;40208;39.778;2.710;2023-02-08T09:06:00;102295.09;;;10.36;100.00
54308;BME280;40208;39.778;2.710;2023-02-08T09:08:44;102293.22;;;10.41;100.00
54308;BME280;40208;39.778;2.710;2023-02-08T09:11:29;102292.19;;;10.48;100.00
54308;BME280;40208;39.778;2.710;2023-02-08T09:14:16;102296.44;;;10.57;100.00
54308;BME280;40208;39.778;2.710;2023-02-08T09:17:00;102299.09;;;10.55;100.00
54308;BME280;40208;39.778;2.710;2023-02-08T09:19:45;102299.94;;;10.59;100.00
54308;BME280;40208;39.778;2.710;2023-02-08T09:22:30;102282.88;;;10.69;100.00
54308;BME280;40208;39.778;2.710;2023-02-08T09:25:15;102281.91;;;10.75;100.00
54308;BME280;40208;39.778;2.710;2023-02-08T09:28:00;102299.44;;;10.82;100.00
54308;BME280;40208;39.778;2.710;2023-02-08T09:30:44;102295.88;;;10.83;100.00
54308;BME280;40208;39.778;2.710;2023-02-08T09:33:29;102294.91;;;10.87;100.00
54308;BME280;40208;39.778;2.710;2023-02-08T09:36:14;102291.22;;;10.93;100.00
54308;BME280;40208;39.778;2.710;2023-02-08T09:39:00;102293.72;;;11.00;100.00
54308;BME280;40208;39.778;2.710;2023-02-08T09:41:54;102298.59;;;11.20;100.00
54308;BME280;40208;39.778;2.710;2023-02-08T09:47:35;102302.09;;;11.21;100.00
54308;BME280;40208;39.778;2.710;2023-02-08T09:53:31;102302.03;;;11.24;100.00
54308;BME280;40208;39.778;2.710;2023-02-08T09:56:20;102307.50;;;11.18;100.00
54308;BME280;40208;39.778;2.710;2023-02-08T09:59:11;102311.69;;;11.28;100.00
54308;BME280;40208;39.778;2.710;2023-02-08T10:05:03;102317.88;;;11.29;100.00
54308;BME280;40208;39.778;2.710;2023-02-08T10:07:49;102315.28;;;11.25;100.00
54308;BME280;40208;39.778;2.710;2023-02-08T10:25:33;102349.91;;;11.60;100.00
54308;BME280;40208;39.778;2.710;2023-02-08T10:34:29;102347.34;;;11.55;100.00
54308;BME280;40208;39.778;2.710;2023-02-08T10:37:17;102349.13;;;11.56;100.00
54308;BME280;40208;39.778;2.710;2023-02-08T10:43:08;102359.56;;;11.64;100.00
54308;BME280;40208;39.778;2.710;2023-02-08T10:51:37;102362.88;;;11.74;100.00
54308;BME280;40208;39.778;2.710;2023-02-08T10:54:21;102359.91;;;11.86;100.00
54308;BME280;40208;39.778;2.710;2023-02-08T10:59:58;102339.28;;;11.96;100.00
54308;BME280;40208;39.778;2.710;2023-02-08T11:02:44;102344.25;;;12.09;100.00
54308;BME280;40208;39.778;2.710;2023-02-08T11:05:34;102362.59;;;12.20;100.00
54308;BME280;40208;39.778;2.710;2023-02-08T11:08:23;102348.38;;;12.21;100.00
54308;BME280;40208;39.778;2.710;2023-02-08T11:11:08;102340.50;;;12.17;100.00
54308;BME280;40208;39.778;2.710;2023-02-08T11:13:53;102342.19;;;12.21;100.00
54308;BME280;40208;39.778;2.710;2023-02-08T11:16:49;102344.06;;;12.17;100.00
54308;BME280;40208;39.778;2.710;2023-02-08T11:19:40;102352.63;;;12.28;100.00
54308;BME280;40208;39.778;2.710;2023-02-08T11:22:29;102365.78;;;12.35;100.00
54308;BME280;40208;39.778;2.710;2023-02-08T11:25:29;102356.69;;;12.42;100.00
54308;BME280;40208;39.778;2.710;2023-02-08T11:28:27;102333.47;;;12.47;100.00
54308;BME280;40208;39.778;2.710;2023-02-08T11:31:17;102336.22;;;12.44;100.00
54308;BME280;40208;39.778;2.710;2023-02-08T11:34:03;102340.72;;;12.42;100.00
54308;BME280;40208;39.778;2.710;2023-02-08T11:36:48;102327.69;;;12.62;100.00
54308;BME280;40208;39.778;2.710;2023-02-08T11:39:41;102321.09;;;12.76;100.00
54308;BME280;40208;39.778;2.710;2023-02-08T11:42:28;102309.38;;;13.11;100.00
54308;BME280;40208;39.778;2.710;2023-02-08T11:45:24;102322.06;;;13.32;100.00
54308;BME280;40208;39.778;2.710;2023-02-08T11:51:21;102303.38;;;13.61;100.00
54308;BME280;40208;39.778;2.710;2023-02-08T11:54:08;102304.47;;;13.80;100.00
54308;BME280;40208;39.778;2.710;2023-02-08T11:57:33;102292.75;;;13.86;100.00
54308;BME280;40208;39.778;2.710;2023-02-08T12:00:18;102294.84;;;14.01;100.00
54308;BME280;40208;39.778;2.710;2023-02-08T12:08:42;102282.09;;;14.34;100.00
54308;BME280;40208;39.778;2.710;2023-02-08T12:22:55;102287.66;;;14.99;100.00
54308;BME280;40208;39.778;2.710;2023-02-08T12:39:41;102283.31;;;14.96;100.00
54308;BME280;40208;39.778;2.710;2023-02-08T12:43:10;102295.22;;;14.88;100.00
54308;BME280;40208;39.778;2.710;2023-02-08T12:46:07;102288.16;;;14.87;100.00
54308;BME280;40208;39.778;2.710;2023-02-08T12:57:36;102297.72;;;14.92;100.00
54308;BME280;40208;39.778;2.710;2023-02-08T13:00:22;102296.72;;;14.95;100.00
54308;BME280;40208;39.778;2.710;2023-02-08T13:05:53;102288.84;;;14.92;100.00
54308;BME280;40208;39.778;2.710;2023-02-08T13:14:27;102282.56;;;14.93;100.00
54308;BME280;40208;39.778;2.710;2023-02-08T13:17:17;102282.44;;;14.96;100.00
54308;BME280;40208;39.778;2.710;2023-02-08T13:20:06;102276.66;;;15.06;100.00
54308;BME280;40208;39.778;2.710;2023-02-08T13:22:55;102281.81;;;15.11;100.00
54308;BME280;40208;39.778;2.710;2023-02-08T13:25:41;102274.44;;;15.18;98.53
54308;BME280;40208;39.778;2.710;2023-02-08T13:28:26;102284.03;;;15.23;100.00
54308;BME280;40208;39.778;2.710;2023-02-08T13:31:12;102286.16;;;15.14;96.89
54308;BME280;40208;39.778;2.710;2023-02-08T13:37:00;102274.75;;;15.10;100.00
54308;BME280;40208;39.778;2.710;2023-02-08T13:39:45;102276.78;;;15.03;100.00
54308;BME280;40208;39.778;2.710;2023-02-08T13:42:36;102278.09;;;14.93;100.00
54308;BME280;40208;39.778;2.710;2023-02-08T13:45:24;102278.31;;;14.87;98.93
54308;BME280;40208;39.778;2.710;2023-02-08T13:48:11;102276.00;;;14.78;100.00
54308;BME280;40208;39.778;2.710;2023-02-08T13:50:56;102271.72;;;14.74;99.77
54308;BME280;40208;39.778;2.710;2023-02-08T14:04:58;102277.84;;;14.29;100.00
54308;BME280;40208;39.778;2.710;2023-02-08T14:08:00;102284.28;;;14.23;100.00
54308;BME280;40208;39.778;2.710;2023-02-08T14:10:49;102287.28;;;14.14;100.00
54308;BME280;40208;39.778;2.710;2023-02-08T14:13:35;102289.03;;;14.15;100.00
54308;BME280;40208;39.778;2.710;2023-02-08T14:16:28;102283.81;;;14.12;100.00
54308;BME280;40208;39.778;2.710;2023-02-08T14:24:49;102289.16;;;14.12;100.00
54308;BME280;40208;39.778;2.710;2023-02-08T14:30:34;102292.88;;;14.06;98.98
54308;BME280;40208;39.778;2.710;2023-02-08T14:33:21;102292.34;;;13.96;100.00
54308;BME280;40208;39.778;2.710;2023-02-08T14:39:25;102279.31;;;13.87;100.00
54308;BME280;40208;39.778;2.710;2023-02-08T14:42:10;102289.28;;;13.82;100.00
54308;BME280;40208;39.778;2.710;2023-02-08T14:44:58;102282.31;;;13.78;100.00
54308;BME280;40208;39.778;2.710;2023-02-08T14:50:29;102287.56;;;13.81;100.00
54308;BME280;40208;39.778;2.710;2023-02-08T14:53:15;102284.97;;;13.78;100.00
54308;BME280;40208;39.778;2.710;2023-02-08T14:56:04;102279.75;;;13.75;100.00
54308;BME280;40208;39.778;2.710;2023-02-08T14:59:12;102277.28;;;13.69;100.00
54308;BME280;40208;39.778;2.710;2023-02-08T15:01:56;102277.66;;;13.58;100.00
54308;BME280;40208;39.778;2.710;2023-02-08T15:04:43;102287.34;;;13.61;100.00
54308;BME280;40208;39.778;2.710;2023-02-08T15:07:38;102282.84;;;13.63;100.00
54308;BME280;40208;39.778;2.710;2023-02-08T15:10:26;102277.63;;;13.60;100.00
54308;BME280;40208;39.778;2.710;2023-02-08T15:13:16;102290.03;;;13.61;100.00
54308;BME280;40208;39.778;2.710;2023-02-08T15:16:02;102288.03;;;13.67;100.00
54308;BME280;40208;39.778;2.710;2023-02-08T15:18:48;102293.25;;;13.70;100.00
54308;BME280;40208;39.778;2.710;2023-02-08T15:21:34;102289.72;;;13.70;100.00
54308;BME280;40208;39.778;2.710;2023-02-08T15:24:24;102285.28;;;13.69;100.00
54308;BME280;40208;39.778;2.710;2023-02-08T15:27:18;102285.19;;;13.72;100.00
54308;BME280;40208;39.778;2.710;2023-02-08T15:30:03;102289.41;;;13.79;100.00
54308;BME280;40208;39.778;2.710;2023-02-08T15:32:48;102289.25;;;13.84;100.00
54308;BME280;40208;39.778;2.710;2023-02-08T15:35:34;102289.09;;;13.88;100.00
54308;BME280;40208;39.778;2.710;2023-02-08T15:38:19;102296.28;;;13.86;100.00
54308;BME280;40208;39.778;2.710;2023-02-08T15:43:50;102295.59;;;13.79;100.00
54308;BME280;40208;39.778;2.710;2023-02-08T15:46:44;102294.97;;;13.71;100.00
54308;BME280;40208;39.778;2.710;2023-02-08T15:49:34;102294.13;;;13.71;100.00
54308;BME280;40208;39.778;2.710;2023-02-08T15:52:23;102305.91;;;13.64;100.00
54308;BME280;40208;39.778;2.710;2023-02-08T15:55:15;102308.81;;;13.57;100.00
54308;BME280;40208;39.778;2.710;2023-02-08T15:58:07;102299.88;;;13.58;100.00
54308;BME280;40208;39.778;2.710;2023-02-08T16:01:00;102306.34;;;13.51;100.00
54308;BME280;40208;39.778;2.710;2023-02-08T16:03:50;102307.28;;;13.50;100.00
54308;BME280;40208;39.778;2.710;2023-02-08T16:06:37;102318.41;;;13.35;100.00
54308;BME280;40208;39.778;2.710;2023-02-08T16:09:25;102318.66;;;13.26;100.00
54308;BME280;40208;39.778;2.710;2023-02-08T16:12:12;102328.63;;;13.21;100.00
54308;BME280;40208;39.778;2.710;2023-02-08T16:15:02;102324.38;;;13.15;100.00
54308;BME280;40208;39.778;2.710;2023-02-08T16:17:48;102323.81;;;13.04;100.00
54308;BME280;40208;39.778;2.710;2023-02-08T16:20:33;102325.75;;;12.99;100.00
54308;BME280;40208;39.778;2.710;2023-02-08T16:23:29;102317.84;;;12.96;100.00
54308;BME280;40208;39.778;2.710;2023-02-08T16:26:17;102316.31;;;12.88;100.00
54308;BME280;40208;39.778;2.710;2023-02-08T16:29:06;102314.72;;;12.81;100.00
54308;BME280;40208;39.778;2.710;2023-02-08T16:32:03;102315.75;;;12.77;100.00
54308;BME280;40208;39.778;2.710;2023-02-08T16:34:50;102321.97;;;12.76;100.00
54308;BME280;40208;39.778;2.710;2023-02-08T16:37:35;102328.19;;;12.77;100.00
54308;BME280;40208;39.778;2.710;2023-02-08T16:43:26;102336.22;;;12.75;100.00
54308;BME280;40208;39.778;2.710;2023-02-08T16:49:04;102340.72;;;12.73;100.00
54308;BME280;40208;39.778;2.710;2023-02-08T16:51:56;102347.84;;;12.72;100.00
54308;BME280;40208;39.778;2.710;2023-02-08T16:54:47;102350.94;;;12.57;100.00
54308;BME280;40208;39.778;2.710;2023-02-08T16:57:42;102361.84;;;12.48;100.00
54308;BME280;40208;39.778;2.710;2023-02-08T17:00:28;102362.88;;;12.42;100.00
54308;BME280;40208;39.778;2.710;2023-02-08T17:03:12;102370.00;;;12.42;100.00
54308;BME280;40208;39.778;2.710;2023-02-08T17:05:58;102369.19;;;12.40;100.00
54308;BME280;40208;39.778;2.710;2023-02-08T17:08:43;102377.25;;;12.37;100.00
54308;BME280;40208;39.778;2.710;2023-02-08T17:11:28;102379.91;;;12.37;100.00
54308;BME280;40208;39.778;2.710;2023-02-08T17:14:12;102367.00;;;12.21;100.00